Time;durP1;ratioP1;P1;durP2;ratioP2;P2;SDS_P1;SDS_P2;PMS_P1;PMS_P2;Temp;Humidity;BMP_temperature;BMP_pressure;BME280_temperature;BME280_humidity;BME280_pressure;Samples;Min_cycle;Max_cycle;Signal;HPM_P1;HPM_P2
2021/09/04 00:02:11;;;;;;;9.75;7.95;;;14.80;99.90;;;;;;6198775;28;20057;-79
2021/09/04 00:05:12;;;;;;;11.25;8.30;;;14.60;99.90;;;;;;6180749;28;20520;-78
2021/09/04 00:08:12;;;;;;;8.93;8.02;;;14.80;99.90;;;;;;6164599;28;20129;-78
2021/09/04 00:11:13;;;;;;;12.88;8.50;;;14.80;99.90;;;;;;6198607;28;20380;-78
2021/09/04 00:14:14;;;;;;;10.88;8.27;;;14.80;99.90;;;;;;6164326;28;20035;-78
2021/09/04 00:17:14;;;;;;;8.80;7.90;;;14.90;99.90;;;;;;6180506;28;20023;-78
2021/09/04 00:20:18;;;;;;;9.95;8.75;;;14.70;99.90;;;;;;6164520;28;20038;-78
2021/09/04 00:23:18;;;;;;;12.52;8.93;;;14.70;99.90;;;;;;6197794;28;20022;-78
2021/09/04 00:26:22;;;;;;;10.32;8.05;;;;;;;;;;6197463;28;20457;-78
2021/09/04 00:29:23;;;;;;;9.90;8.63;;;14.70;99.90;;;;;;6180636;28;20037;-79
2021/09/04 00:32:23;;;;;;;11.88;8.60;;;14.80;99.90;;;;;;6197856;28;20369;-78
2021/09/04 00:35:24;;;;;;;11.07;8.50;;;14.60;99.90;;;;;;6164003;28;20061;-79
2021/09/04 00:38:25;;;;;;;10.20;8.30;;;14.80;99.90;;;;;;6197178;28;20046;-78
2021/09/04 00:41:25;;;;;;;13.25;9.10;;;14.50;99.90;;;;;;6179980;28;20113;-78
2021/09/04 00:44:26;;;;;;;9.00;8.07;;;14.30;99.90;;;;;;6147848;28;20353;-78
2021/09/04 00:47:26;;;;;;;9.15;7.93;;;14.70;99.90;;;;;;6197065;28;20080;-78
2021/09/04 00:50:28;;;;;;;10.57;8.27;;;14.60;99.90;;;;;;6197589;28;20019;-78
2021/09/04 00:53:28;;;;;;;10.57;7.87;;;14.40;99.90;;;;;;6163801;28;20022;-78
2021/09/04 00:56:29;;;;;;;11.27;8.70;;;14.50;99.90;;;;;;6163459;28;20046;-79
2021/09/04 00:59:29;;;;;;;11.98;8.30;;;14.30;99.90;;;;;;6180215;28;20460;-78
2021/09/04 01:02:30;;;;;;;10.65;8.52;;;14.30;99.90;;;;;;6179311;28;20420;-78
2021/09/04 01:05:31;;;;;;;11.20;7.93;;;14.40;99.90;;;;;;6179212;28;20039;-79
2021/09/04 01:08:32;;;;;;;11.23;8.55;;;;;;;;;;6196852;28;20046;-78
2021/09/04 01:11:33;;;;;;;10.23;8.75;;;;;;;;;;6197407;28;20026;-78
2021/09/04 01:14:33;;;;;;;9.40;8.23;;;14.70;99.90;;;;;;6179349;28;20131;-78
2021/09/04 01:17:34;;;;;;;10.15;8.70;;;14.10;99.90;;;;;;6179275;28;20089;-79
2021/09/04 01:20:35;;;;;;;9.45;8.20;;;14.20;99.90;;;;;;6162810;28;20094;-78
2021/09/04 01:23:36;;;;;;;10.87;9.03;;;14.60;99.90;;;;;;6162869;28;20077;-79
2021/09/04 01:26:36;;;;;;;11.73;9.82;;;14.50;99.90;;;;;;6162726;28;20080;-79
2021/09/04 01:29:37;;;;;;;11.88;9.27;;;14.30;99.90;;;;;;6178964;28;20034;-79
2021/09/04 01:32:38;;;;;;;11.65;9.82;;;14.20;99.90;;;;;;6196323;28;20468;-79
2021/09/04 01:35:38;;;;;;;10.23;8.38;;;14.10;99.90;;;;;;6196122;28;20053;-79
2021/09/04 01:38:39;;;;;;;10.15;8.95;;;14.30;99.90;;;;;;6195502;28;20133;-79
2021/09/04 01:41:40;;;;;;;10.05;8.00;;;14.50;99.90;;;;;;6196085;28;20034;-79
2021/09/04 01:44:41;;;;;;;10.18;8.05;;;14.10;99.90;;;;;;6162518;28;20034;-79
2021/09/04 01:47:41;;;;;;;10.95;7.72;;;14.20;99.90;;;;;;6178736;28;20069;-79
2021/09/04 01:50:42;;;;;;;9.80;8.18;;;;;;;;;;6196282;28;20092;-79
2021/09/04 01:53:43;;;;;;;10.25;8.45;;;14.00;99.90;;;;;;6178253;28;20372;-79
2021/09/04 01:56:44;;;;;;;11.57;9.43;;;;;;;;;;6146214;28;20023;-79
2021/09/04 01:59:46;;;;;;;11.05;8.50;;;;;;;;;;6195997;28;20038;-79
2021/09/04 02:02:47;;;;;;;10.98;9.15;;;;;;;;;;6177759;28;20054;-80
2021/09/04 02:05:48;;;;;;;10.95;9.18;;;;;;;;;;6178017;28;20025;-79
2021/09/04 02:08:49;;;;;;;9.98;8.50;;;;;;;;;;6178157;28;20477;-79
2021/09/04 02:11:50;;;;;;;10.70;8.63;;;;;;;;;;6177710;28;20022;-79
2021/09/04 02:14:51;;;;;;;10.35;8.38;;;;;;;;;;6195418;28;20037;-79
2021/09/04 02:17:52;;;;;;;13.90;8.90;;;14.00;99.90;;;;;;6177898;28;20503;-79
2021/09/04 02:20:53;;;;;;;10.23;8.98;;;14.20;99.90;;;;;;6195930;28;20027;-79
2021/09/04 02:23:53;;;;;;;10.40;9.30;;;14.10;99.90;;;;;;6177891;28;20033;-79
2021/09/04 02:26:54;;;;;;;12.40;9.07;;;14.10;99.90;;;;;;6161489;28;20030;-79
2021/09/04 02:29:54;;;;;;;16.02;9.05;;;14.00;99.90;;;;;;6194770;28;20121;-79
2021/09/04 02:32:55;;;;;;;12.15;8.38;;;14.00;99.90;;;;;;6177251;28;20507;-79
2021/09/04 02:35:55;;;;;;;11.20;9.35;;;13.90;99.90;;;;;;6177292;28;20368;-79
2021/09/04 02:38:56;;;;;;;13.05;9.60;;;13.80;99.90;;;;;;6177637;28;20122;-79
2021/09/04 02:41:56;;;;;;;9.25;8.27;;;13.90;99.90;;;;;;6194771;28;20026;-79
2021/09/04 02:44:57;;;;;;;10.48;8.13;;;13.70;99.90;;;;;;6161485;28;20030;-79
2021/09/04 02:47:58;;;;;;;10.68;8.55;;;13.70;99.90;;;;;;6194529;28;20036;-79
2021/09/04 02:50:58;;;;;;;11.35;9.15;;;14.00;99.90;;;;;;6194490;28;20026;-79
2021/09/04 02:53:59;;;;;;;9.68;8.68;;;13.80;99.90;;;;;;6194623;28;20030;-79
2021/09/04 02:57:00;;;;;;;11.25;7.97;;;13.80;99.90;;;;;;6194440;28;20030;-79
2021/09/04 03:00:00;;;;;;;10.25;8.80;;;13.80;99.90;;;;;;6176967;28;20038;-79
2021/09/04 03:03:01;;;;;;;12.35;8.90;;;13.90;99.90;;;;;;6176855;28;20113;-79
2021/09/04 03:06:01;;;;;;;10.43;8.82;;;13.80;99.90;;;;;;6194951;28;20030;-79
2021/09/04 03:09:02;;;;;;;11.02;9.30;;;13.90;99.90;;;;;;6176987;28;20046;-79
2021/09/04 03:12:03;;;;;;;10.95;9.60;;;13.80;99.90;;;;;;6177382;28;20030;-79
2021/09/04 03:15:05;;;;;;;13.07;8.10;;;13.70;99.90;;;;;;6176872;28;20042;-78
2021/09/04 03:18:05;;;;;;;8.90;7.88;;;13.80;99.90;;;;;;6177058;28;20027;-79
2021/09/04 03:21:10;;;;;;;11.10;8.65;;;;;;;;;;6176534;28;20026;-78
2021/09/04 03:24:10;;;;;;;9.70;8.32;;;13.80;99.90;;;;;;6177550;28;20085;-79
2021/09/04 03:27:11;;;;;;;11.27;8.32;;;13.70;99.90;;;;;;6176625;28;20050;-79
2021/09/04 03:30:11;;;;;;;10.05;7.95;;;13.70;99.90;;;;;;6176401;28;20035;-79
2021/09/04 03:33:12;;;;;;;12.00;8.82;;;13.70;99.90;;;;;;6176867;28;20150;-79
2021/09/04 03:36:13;;;;;;;11.15;8.90;;;13.60;99.90;;;;;;6176587;28;20140;-79
2021/09/04 03:39:13;;;;;;;9.77;8.73;;;13.60;99.90;;;;;;6194269;28;20038;-79
2021/09/04 03:42:14;;;;;;;10.93;8.93;;;12.30;99.90;;;;;;6160614;28;20483;-79
2021/09/04 03:45:14;;;;;;;10.52;9.13;;;13.40;99.90;;;;;;6176578;28;20439;-79
2021/09/04 03:48:15;;;;;;;11.23;8.75;;;13.60;99.90;;;;;;6176865;28;20505;-78
2021/09/04 03:51:15;;;;;;;11.88;9.10;;;13.40;99.90;;;;;;6160519;28;20117;-79
2021/09/04 03:54:16;;;;;;;11.38;8.93;;;13.70;99.90;;;;;;6176407;28;20441;-78
2021/09/04 03:57:17;;;;;;;9.43;8.43;;;;;;;;;;6176292;28;20358;-77
2021/09/04 04:00:18;;;;;;;11.57;9.48;;;13.30;99.90;;;;;;6194437;28;20380;-78
2021/09/04 04:03:18;;;;;;;9.85;8.48;;;13.30;99.90;;;;;;6164667;28;20026;-78
2021/09/04 04:06:19;;;;;;;9.65;8.35;;;13.10;99.90;;;;;;6198524;28;20544;-78
2021/09/04 04:09:19;;;;;;;11.90;8.65;;;13.30;99.90;;;;;;6180783;28;20031;-78
2021/09/04 04:12:20;;;;;;;11.75;9.63;;;13.40;99.90;;;;;;6180400;28;20034;-77
2021/09/04 04:15:21;;;;;;;9.65;8.60;;;13.50;99.90;;;;;;6198328;28;20123;-78
2021/09/04 04:18:21;;;;;;;11.90;9.07;;;13.40;99.90;;;;;;6197924;28;20038;-78
2021/09/04 04:21:22;;;;;;;11.48;8.68;;;13.50;99.90;;;;;;6180777;28;20868;-77
2021/09/04 04:24:23;;;;;;;10.40;9.07;;;13.40;99.90;;;;;;6179998;28;20026;-78
2021/09/04 04:27:23;;;;;;;9.85;8.43;;;13.40;99.90;;;;;;6180367;28;20034;-78
2021/09/04 04:30:24;;;;;;;10.55;8.73;;;13.30;99.90;;;;;;6180444;28;20157;-77
2021/09/04 04:33:24;;;;;;;77.03;68.78;;;13.40;99.90;;;;;;6180302;28;20034;-78
2021/09/04 04:36:25;;;;;;;119.22;89.78;;;13.00;99.90;;;;;;6179820;28;20536;-77
2021/09/04 04:39:26;;;;;;;34.53;29.67;;;13.30;99.90;;;;;;6197295;28;20531;-78
2021/09/04 04:42:26;;;;;;;12.43;10.30;;;13.20;99.90;;;;;;6163943;28;20026;-78
2021/09/04 04:45:27;;;;;;;12.70;11.40;;;13.10;99.90;;;;;;6197350;28;20528;-77
2021/09/04 04:48:27;;;;;;;22.58;20.67;;;12.90;99.90;;;;;;6163704;28;20034;-77
2021/09/04 04:51:28;;;;;;;11.57;8.95;;;12.90;99.90;;;;;;6180171;28;20492;-78
2021/09/04 04:54:28;;;;;;;12.93;11.43;;;13.30;99.90;;;;;;6164051;28;20038;-78
2021/09/04 04:57:29;;;;;;;13.05;11.68;;;13.00;99.90;;;;;;6163208;28;20034;-77
2021/09/04 05:00:29;;;;;;;13.10;11.80;;;13.00;99.90;;;;;;6179655;28;20173;-78
2021/09/04 05:03:30;;;;;;;10.32;8.25;;;13.40;99.90;;;;;;6197207;28;20026;-78
2021/09/04 05:06:31;;;;;;;10.35;8.65;;;;;;;;;;6179286;28;20465;-77
2021/09/04 05:09:32;;;;;;;10.60;9.50;;;;;;;;;;6196969;28;20472;-78
2021/09/04 05:12:33;;;;;;;18.27;15.07;;;;;;;;;;6179103;28;20030;-77
2021/09/04 05:15:33;;;;;;;11.52;9.00;;;13.50;99.90;;;;;;6196666;28;20019;-78
2021/09/04 05:18:34;;;;;;;12.30;11.10;;;;;;;;;;6196967;28;20372;-77
2021/09/04 05:21:35;;;;;;;11.82;8.38;;;;;;;;;;6196933;28;20029;-78
2021/09/04 05:24:36;;;;;;;10.75;9.15;;;13.30;99.90;;;;;;6179185;28;20022;-78
2021/09/04 05:27:37;;;;;;;9.32;8.35;;;13.70;99.90;;;;;;6196744;28;20473;-77
2021/09/04 05:30:37;;;;;;;9.25;8.23;;;13.90;99.90;;;;;;6196715;28;20023;-78
2021/09/04 05:33:38;;;;;;;10.52;7.85;;;14.40;99.90;;;;;;6178557;28;20058;-78
2021/09/04 05:36:38;;;;;;;10.23;8.73;;;14.80;99.90;;;;;;6178821;28;20046;-77
2021/09/04 05:39:39;;;;;;;13.60;8.60;;;15.30;99.90;;;;;;6195854;28;20034;-78
2021/09/04 05:42:40;;;;;;;10.38;8.13;;;16.20;99.90;;;;;;6196128;28;20026;-78
2021/09/04 05:45:43;;;;;;;9.52;8.07;;;16.10;99.90;;;;;;6196861;28;20034;-78
2021/09/04 05:48:44;;;;;;;9.98;7.75;;;16.70;99.90;;;;;;6195807;28;20034;-78
2021/09/04 05:51:44;;;;;;;10.43;8.38;;;17.20;99.90;;;;;;6162314;28;20491;-78
2021/09/04 05:54:45;;;;;;;9.15;8.15;;;17.20;99.90;;;;;;6195935;28;20416;-78
2021/09/04 05:57:45;;;;;;;8.52;7.20;;;17.80;99.90;;;;;;6178465;28;20045;-78
2021/09/04 06:00:46;;;;;;;12.52;8.55;;;17.70;99.90;;;;;;6195642;28;20376;-79
2021/09/04 06:03:47;;;;;;;8.25;7.20;;;18.00;99.90;;;;;;6161914;28;20440;-78
2021/09/04 06:06:47;;;;;;;9.30;7.68;;;18.30;99.90;;;;;;6196306;28;20030;-78
2021/09/04 06:09:48;;;;;;;10.52;7.82;;;19.00;99.90;;;;;;6177913;28;20066;-78
2021/09/04 06:12:50;;;;;;;12.45;7.35;;;19.10;99.90;;;;;;6177955;28;20051;-79
2021/09/04 06:15:50;;;;;;;12.05;7.47;;;19.30;99.90;;;;;;6178381;28;20037;-78
2021/09/04 06:18:51;;;;;;;10.70;7.50;;;19.70;99.90;;;;;;6161747;28;20585;-79
2021/09/04 06:21:51;;;;;;;8.55;7.55;;;19.90;99.90;;;;;;6161698;28;20449;-78
2021/09/04 06:24:52;;;;;;;10.43;7.13;;;20.30;99.90;;;;;;6160874;28;20030;-80
2021/09/04 06:27:53;;;;;;;8.43;7.18;;;20.40;99.90;;;;;;6177418;28;20071;-80
2021/09/04 06:31:28;;;;;;;8.55;7.28;;;21.30;99.90;;;;;;6160924;28;20113;-79
2021/09/04 06:34:29;;;;;;;12.07;7.38;;;21.20;99.90;;;;;;6179041;28;20038;-78
2021/09/04 06:37:30;;;;;;;8.52;7.60;;;21.50;99.90;;;;;;6152713;28;20065;-78
2021/09/04 06:40:31;;;;;;;9.00;7.32;;;21.40;99.90;;;;;;6169420;28;20048;-78
2021/09/04 06:43:31;;;;;;;10.17;7.93;;;21.30;99.90;;;;;;6162410;28;20109;-78
2021/09/04 06:46:32;;;;;;;9.95;7.50;;;21.90;99.90;;;;;;6146219;28;20024;-78
2021/09/04 06:49:33;;;;;;;8.57;7.68;;;22.20;99.90;;;;;;6147662;28;20487;-78
2021/09/04 06:52:33;;;;;;;10.38;7.47;;;22.70;99.90;;;;;;6146341;28;20035;-78
2021/09/04 06:55:34;;;;;;;8.32;7.15;;;23.00;99.90;;;;;;6160504;28;20681;-78
2021/09/04 06:58:34;;;;;;;10.13;7.25;;;23.30;99.20;;;;;;6146960;28;20409;-78
2021/09/04 07:01:35;;;;;;;11.23;7.90;;;23.70;98.60;;;;;;6147001;28;20027;-78
2021/09/04 07:04:35;;;;;;;9.82;7.32;;;24.10;97.00;;;;;;6157347;28;20031;-78
2021/09/04 07:07:36;;;;;;;9.23;7.10;;;24.20;95.20;;;;;;6129741;28;20032;-79
2021/09/04 07:10:36;;;;;;;10.02;7.03;;;24.40;94.50;;;;;;6145977;28;20089;-78
2021/09/04 07:13:38;;;;;;;8.65;7.43;;;24.50;94.90;;;;;;6145861;28;20031;-78
2021/09/04 07:16:38;;;;;;;9.13;7.10;;;24.90;94.90;;;;;;6129597;28;20619;-79
2021/09/04 07:19:39;;;;;;;7.50;6.80;;;25.00;93.60;;;;;;6152250;28;20033;-78
2021/09/04 07:22:40;;;;;;;8.90;7.07;;;25.30;92.60;;;;;;6184593;28;20369;-78
2021/09/04 07:25:40;;;;;;;8.93;7.57;;;25.40;99.20;;;;;;6155116;28;20035;-78
2021/09/04 07:28:41;;;;;;;7.97;6.90;;;26.30;99.90;;;;;;6145232;28;20043;-78
2021/09/04 07:31:41;;;;;;;9.80;8.10;;;26.20;99.90;;;;;;6145706;28;20031;-78
2021/09/04 07:34:42;;;;;;;13.33;12.00;;;26.30;99.60;;;;;;6146686;28;20462;-78
2021/09/04 07:37:42;;;;;;;9.33;7.33;;;26.20;99.90;;;;;;6164240;28;20059;-78
2021/09/04 07:40:44;;;;;;;9.37;7.50;;;26.50;90.90;;;;;;6172595;28;20030;-78
2021/09/04 07:43:45;;;;;;;;;;;26.60;91.00;;;;;;6151096;28;20038;-79
2021/09/04 07:46:49;;;;;;;9.38;7.57;;;27.10;99.90;;;;;;6156560;28;19965;-78
2021/09/04 07:49:50;;;;;;;10.07;7.68;;;27.20;99.90;;;;;;6145471;28;20039;-78
2021/09/04 07:52:51;;;;;;;13.43;8.60;;;27.50;96.20;;;;;;6149632;28;20046;-78
2021/09/04 07:55:52;;;;;;;9.02;7.43;;;27.70;98.00;;;;;;6149985;28;20023;-78
2021/09/04 07:58:52;;;;;;;11.93;7.30;;;28.30;95.70;;;;;;6149471;28;20429;-78
2021/09/04 08:01:53;;;;;;;11.63;7.37;;;;;;;;;;6149561;28;20059;-79
2021/09/04 08:04:54;;;;;;;8.73;7.83;;;28.40;98.50;;;;;;6151253;28;20035;-79
2021/09/04 08:07:55;;;;;;;8.13;7.33;;;;;;;;;;6150832;28;20409;-78
2021/09/04 08:10:56;;;;;;;8.30;7.03;;;29.30;88.40;;;;;;6150346;28;20039;-78
2021/09/04 08:13:56;;;;;;;9.67;8.10;;;29.60;96.60;;;;;;6149115;28;20095;-79
2021/09/04 08:16:57;;;;;;;10.57;8.13;;;29.60;91.70;;;;;;6166957;28;20022;-78
2021/09/04 08:19:57;;;;;;;7.97;7.17;;;30.40;90.90;;;;;;6172296;28;20346;-78
2021/09/04 08:22:58;;;;;;;9.67;7.07;;;29.40;76.30;;;;;;6139155;28;20027;-79
2021/09/04 08:25:59;;;;;;;8.80;6.63;;;29.90;73.70;;;;;;6167737;28;20041;-79
2021/09/04 08:28:59;;;;;;;7.60;6.80;;;29.90;73.10;;;;;;6159345;28;20054;-78
2021/09/04 08:32:00;;;;;;;8.97;7.07;;;29.80;73.80;;;;;;6150935;28;20042;-79
2021/09/04 08:35:01;;;;;;;7.67;6.83;;;30.10;71.60;;;;;;6160013;28;20031;-79
2021/09/04 08:38:06;;;;;;;6.93;6.17;;;30.00;86.50;;;;;;6165225;28;20138;-79
2021/09/04 08:41:07;;;;;;;9.45;7.20;;;30.20;71.10;;;;;;6156604;28;20034;-78
2021/09/04 08:44:07;;;;;;;9.07;8.17;;;30.30;71.30;;;;;;6164669;28;20102;-78
2021/09/04 08:47:08;;;;;;;9.47;8.43;;;30.40;71.20;;;;;;6156408;28;20027;-78
2021/09/04 08:50:09;;;;;;;8.43;7.35;;;30.60;71.40;;;;;;6171600;28;20442;-79
2021/09/04 08:53:10;;;;;;;9.80;7.97;;;30.70;69.40;;;;;;6155228;28;20034;-78
2021/09/04 08:56:10;;;;;;;9.63;7.83;;;30.90;68.50;;;;;;6171171;28;20527;-78
2021/09/04 08:59:11;;;;;;;10.90;9.23;;;31.20;68.00;;;;;;6172451;28;20038;-79
2021/09/04 09:02:12;;;;;;;11.40;8.33;;;31.10;69.50;;;;;;6171182;28;20039;-78
2021/09/04 09:05:12;;;;;;;8.70;7.82;;;31.20;68.40;;;;;;6155289;28;20034;-78
2021/09/04 09:08:18;;;;;;;9.60;8.10;;;31.20;68.20;;;;;;6170983;28;20493;-78
2021/09/04 09:11:18;;;;;;;8.73;7.78;;;31.20;66.80;;;;;;6170994;28;20027;-79
2021/09/04 09:14:19;;;;;;;8.60;7.60;;;31.40;79.40;;;;;;6154611;28;20062;-79
2021/09/04 09:17:23;;;;;;;9.38;7.85;;;31.40;65.60;;;;;;6132309;28;20025;-79
2021/09/04 09:20:24;;;;;;;8.57;7.43;;;31.30;65.10;;;;;;6116004;28;20077;-78
2021/09/04 09:23:24;;;;;;;8.40;7.60;;;31.40;66.50;;;;;;6147846;28;20442;-78
2021/09/04 09:26:29;;;;;;;12.50;8.43;;;31.40;66.30;;;;;;6148830;28;20063;-79
2021/09/04 09:29:33;;;;;;;12.75;10.02;;;31.70;66.40;;;;;;6147762;28;20125;-79
2021/09/04 09:32:34;;;;;;;7.85;7.13;;;31.70;67.00;;;;;;6147731;28;20102;-79
2021/09/04 09:35:42;;;;;;;13.70;9.50;;;31.60;64.90;;;;;;6170217;28;20019;-79
2021/09/04 09:38:43;;;;;;;10.63;7.75;;;31.50;66.10;;;;;;6169798;28;20051;-79
2021/09/04 09:41:50;;;;;;;11.35;10.15;;;31.60;67.30;;;;;;6170108;28;20099;-79
2021/09/04 09:44:52;;;;;;;10.88;9.15;;;31.70;68.20;;;;;;6148502;28;20035;-78
2021/09/04 09:47:53;;;;;;;12.32;9.07;;;31.30;66.90;;;;;;6131410;28;20486;-79
2021/09/04 09:50:55;;;;;;;9.00;8.10;;;31.70;67.60;;;;;;6131845;28;20102;-79
2021/09/04 09:53:55;;;;;;;8.73;7.63;;;31.50;68.80;;;;;;6155341;28;20070;-79
2021/09/04 09:56:57;;;;;;;11.40;8.00;;;31.50;67.70;;;;;;6131473;28;20035;-78
2021/09/04 09:59:58;;;;;;;9.50;8.10;;;31.50;67.40;;;;;;6115234;28;20373;-78
2021/09/04 10:03:00;;;;;;;8.60;7.70;;;31.70;66.80;;;;;;6169625;28;20069;-79
2021/09/04 10:06:00;;;;;;;8.90;8.05;;;31.80;66.60;;;;;;6169333;28;20085;-78
2021/09/04 10:09:01;;;;;;;12.88;7.88;;;31.80;66.10;;;;;;6153890;28;20410;-79
2021/09/04 10:12:02;;;;;;;9.60;7.43;;;31.90;65.60;;;;;;6153271;28;20038;-79
2021/09/04 10:15:03;;;;;;;9.18;7.43;;;31.90;65.80;;;;;;6137645;28;20070;-79
2021/09/04 10:18:08;;;;;;;10.23;9.23;;;31.90;64.60;;;;;;6163287;28;20035;-79
2021/09/04 10:21:10;;;;;;;9.05;7.15;;;31.90;87.80;;;;;;6114958;28;20066;-79
2021/09/04 10:24:11;;;;;;;8.25;7.45;;;32.00;91.60;;;;;;6114704;28;20024;-79
2021/09/04 10:27:13;;;;;;;7.10;6.40;;;32.10;74.60;;;;;;6147719;28;20046;-78
2021/09/04 10:30:34;;;;;;;8.05;7.25;;;32.10;66.80;;;;;;6131029;28;20043;-79
2021/09/04 10:33:35;;;;;;;;;;;32.00;75.10;;;;;;6148044;28;20114;-79
2021/09/04 10:36:35;;;;;;;10.93;8.00;;;31.80;79.30;;;;;;6158502;28;19914;-79
2021/09/04 10:40:07;;;;;;;8.70;7.88;;;31.80;64.50;;;;;;6161730;28;20065;-79
2021/09/04 10:43:08;;;;;;;;;;;31.90;71.80;;;;;;6179470;28;20036;-78
2021/09/04 10:46:13;;;;;;;9.18;7.45;;;31.90;76.00;;;;;;6194509;28;19910;-79
2021/09/04 10:49:14;;;;;;;10.50;7.53;;;31.70;92.00;;;;;;6194848;28;20034;-79
2021/09/04 10:52:14;;;;;;;9.93;8.07;;;31.80;77.00;;;;;;6160863;28;20137;-78
2021/09/04 10:55:31;;;;;;;7.87;7.10;;;31.80;66.30;;;;;;6177054;28;20029;-79
2021/09/04 10:58:41;;;;;;;8.68;7.47;;;31.70;64.20;;;;;;6195342;28;20274;-78
2021/09/04 11:01:48;;;;;;;9.00;7.05;;;31.60;88.50;;;;;;6161038;28;20130;-79
2021/09/04 11:04:56;;;;;;;9.75;7.53;;;31.50;92.10;;;;;;6194986;28;20036;-79
2021/09/04 11:08:03;;;;;;;12.05;7.60;;;31.80;78.80;;;;;;6177047;28;20479;-79
2021/09/04 11:11:16;;;;;;;7.90;7.20;;;31.40;64.80;;;;;;6199875;28;20882;-78
2021/09/04 11:14:17;;;;;;;7.25;6.55;;;31.30;67.30;;;;;;6202739;28;20038;-79
2021/09/04 11:17:18;;;;;;;;;;;31.00;66.00;;;;;;6202686;28;20457;-79
2021/09/04 11:20:18;;;;;;;8.63;6.93;;;31.10;66.20;;;;;;6202686;28;19902;-78
2021/09/04 11:23:26;;;;;;;7.53;6.67;;;31.00;67.70;;;;;;6168498;28;20041;-78
2021/09/04 11:26:27;;;;;;;7.25;6.55;;;30.90;66.30;;;;;;6184897;28;20031;-78
2021/09/04 11:29:28;;;;;;;7.82;7.05;;;31.00;67.30;;;;;;6184444;28;20404;-78
2021/09/04 11:32:31;;;;;;;7.90;6.20;;;31.00;67.00;;;;;;6185028;28;20044;-78
2021/09/04 11:35:32;;;;;;;7.82;6.78;;;30.90;65.30;;;;;;6202246;28;20523;-78
2021/09/04 11:38:32;;;;;;;7.47;6.73;;;31.00;66.40;;;;;;6168101;28;20062;-78
2021/09/04 11:41:44;;;;;;;7.40;6.40;;;30.90;66.90;;;;;;6152369;28;20029;-78
2021/09/04 11:44:46;;;;;;;13.85;11.18;;;30.90;66.50;;;;;;6185095;28;20457;-78
2021/09/04 11:47:48;;;;;;;7.28;6.53;;;30.90;66.30;;;;;;6168558;28;20440;-79
2021/09/04 11:50:49;;;;;;;7.03;6.32;;;30.80;66.00;;;;;;6184821;28;20036;-78
2021/09/04 11:54:02;;;;;;;7.80;7.00;;;30.80;66.90;;;;;;6202395;28;20357;-78
2021/09/04 11:57:24;;;;;;;8.70;6.82;;;30.50;65.90;;;;;;6184301;28;20113;-78
2021/09/04 12:00:35;;;;;;;9.73;6.63;;;30.30;80.20;;;;;;6184180;28;20125;-78
2021/09/04 12:03:36;;;;;;;7.43;6.22;;;30.30;63.90;;;;;;6168728;28;20105;-79
2021/09/04 12:06:37;;;;;;;7.47;6.67;;;30.10;82.20;;;;;;6202484;28;20038;-79
2021/09/04 12:09:37;;;;;;;8.27;6.53;;;29.90;66.10;;;;;;6184428;28;20317;-79
2021/09/04 12:12:39;;;;;;;8.87;7.17;;;30.00;66.40;;;;;;6168597;28;20026;-78
2021/09/04 12:15:39;;;;;;;;;;;30.10;66.90;;;;;;6184502;28;20515;-78
2021/09/04 12:18:42;;;;;;;8.77;6.23;;;29.80;80.20;;;;;;6200417;28;19909;-78
2021/09/04 12:21:50;;;;;;;6.63;6.03;;;29.80;64.80;;;;;;6199194;28;20034;-78
2021/09/04 12:24:50;;;;;;;7.10;6.20;;;29.70;64.20;;;;;;6180542;28;20018;-78
2021/09/04 12:28:00;;;;;;;7.87;6.23;;;29.70;66.80;;;;;;6180015;28;20420;-78
2021/09/04 12:31:15;;;;;;;7.07;5.88;;;29.60;65.80;;;;;;6148672;28;20034;-78
2021/09/04 12:34:22;;;;;;;7.47;6.68;;;29.60;66.50;;;;;;6164894;28;20026;-78
2021/09/04 12:37:27;;;;;;;7.18;6.15;;;29.70;65.70;;;;;;6179602;28;20057;-78
2021/09/04 12:40:27;;;;;;;9.40;8.25;;;29.80;66.10;;;;;;6163433;28;20117;-79
2021/09/04 12:43:28;;;;;;;7.10;6.40;;;29.90;66.50;;;;;;6197586;28;20369;-78
2021/09/04 12:46:47;;;;;;;11.03;7.53;;;29.80;66.70;;;;;;6179792;28;20117;-78
2021/09/04 12:49:48;;;;;;;7.00;6.30;;;29.80;68.20;;;;;;6197565;28;20030;-78
2021/09/04 12:53:05;;;;;;;14.93;11.50;;;29.70;66.70;;;;;;6197139;28;20149;-78
2021/09/04 12:56:05;;;;;;;8.50;6.30;;;29.60;68.10;;;;;;6147520;28;20560;-78
2021/09/04 12:59:07;;;;;;;8.17;5.90;;;29.60;66.60;;;;;;6179567;28;20026;-78
2021/09/04 13:02:09;;;;;;;7.55;6.75;;;29.50;68.50;;;;;;6179583;28;20113;-78
2021/09/04 13:05:13;;;;;;;9.75;6.78;;;29.50;67.60;;;;;;6179305;28;20045;-78
2021/09/04 13:08:13;;;;;;;7.68;6.55;;;29.40;66.50;;;;;;6147943;28;20427;-78
2021/09/04 13:11:14;;;;;;;7.13;6.43;;;29.10;67.20;;;;;;6196759;28;20038;-78
2021/09/04 13:14:15;;;;;;;8.93;6.57;;;28.90;69.20;;;;;;6196748;28;20022;-78
2021/09/04 13:17:15;;;;;;;7.43;5.73;;;28.60;66.40;;;;;;6196655;28;20460;-78
2021/09/04 13:20:16;;;;;;;7.47;5.70;;;28.20;69.40;;;;;;6163244;28;20757;-78
2021/09/04 13:23:17;;;;;;;7.45;6.60;;;28.30;70.20;;;;;;6179437;28;20030;-78
2021/09/04 13:26:17;;;;;;;8.10;6.27;;;28.50;70.60;;;;;;6178919;28;20084;-78
2021/09/04 13:29:19;;;;;;;6.33;5.60;;;28.70;69.20;;;;;;6178861;28;20510;-78
2021/09/04 13:32:20;;;;;;;6.97;6.32;;;29.00;69.50;;;;;;6163060;28;20062;-78
2021/09/04 13:35:21;;;;;;;6.73;5.97;;;29.20;71.40;;;;;;6178252;28;20123;-78
2021/09/04 13:38:21;;;;;;;7.33;6.63;;;29.20;68.50;;;;;;6177943;28;20069;-78
2021/09/04 13:41:22;;;;;;;7.23;6.03;;;29.20;66.90;;;;;;6178836;28;20049;-78
2021/09/04 13:44:22;;;;;;;7.17;5.77;;;29.30;67.50;;;;;;6196395;28;20030;-78
2021/09/04 13:47:23;;;;;;;6.83;5.87;;;29.50;68.80;;;;;;6162030;28;20030;-78
2021/09/04 13:50:24;;;;;;;8.07;6.20;;;29.50;83.30;;;;;;6162450;28;20109;-78
2021/09/04 13:53:25;;;;;;;7.83;6.60;;;29.60;68.30;;;;;;6146328;28;20034;-78
2021/09/04 13:56:25;;;;;;;7.13;6.30;;;29.80;85.20;;;;;;6178373;28;20015;-78
2021/09/04 13:59:26;;;;;;;7.83;6.63;;;29.40;91.60;;;;;;6146221;28;20034;-78
2021/09/04 14:02:26;;;;;;;7.40;6.23;;;29.50;92.30;;;;;;6178316;28;20332;-78
2021/09/04 14:05:27;;;;;;;6.43;5.83;;;;;;;;;;6178099;28;20034;-78
2021/09/04 14:08:28;;;;;;;7.18;6.47;;;30.00;92.30;;;;;;6195653;28;20097;-78
2021/09/04 14:11:29;;;;;;;6.63;5.97;;;29.90;91.40;;;;;;6161831;28;20062;-78
2021/09/04 14:14:31;;;;;;;6.27;5.67;;;;;;;;;;6178014;28;20023;-78
2021/09/04 14:17:32;;;;;;;5.78;5.18;;;29.70;92.10;;;;;;6195353;28;20042;-78
2021/09/04 14:20:32;;;;;;;6.53;5.83;;;29.70;92.00;;;;;;6178149;28;20054;-78
2021/09/04 14:23:33;;;;;;;5.90;5.30;;;30.00;91.90;;;;;;6195546;28;21000;-78
2021/09/04 14:26:34;;;;;;;6.83;5.87;;;;;;;;;;6194948;28;20022;-78
2021/09/04 14:29:35;;;;;;;7.15;5.93;;;29.70;90.40;;;;;;6195112;28;20042;-78
2021/09/04 14:32:36;;;;;;;6.47;5.65;;;29.90;81.40;;;;;;6195025;28;20427;-78
2021/09/04 14:35:37;;;;;;;6.67;6.07;;;;;;;;;;6195304;28;20023;-78
2021/09/04 14:38:37;;;;;;;7.00;5.80;;;30.10;70.70;;;;;;6177089;28;20058;-78
2021/09/04 14:41:38;;;;;;;6.53;5.47;;;29.60;74.60;;;;;;6177377;28;20464;-78
2021/09/04 14:44:38;;;;;;;6.33;5.70;;;29.40;62.30;;;;;;6176861;28;20452;-78
2021/09/04 14:47:39;;;;;;;7.53;6.13;;;29.20;63.20;;;;;;6177121;28;20461;-78
2021/09/04 14:50:40;;;;;;;6.90;5.77;;;29.10;63.80;;;;;;6161247;28;20064;-77
2021/09/04 14:53:40;;;;;;;9.10;6.00;;;29.20;64.30;;;;;;6177027;28;20261;-78
2021/09/04 14:56:41;;;;;;;7.47;6.40;;;29.20;66.20;;;;;;6177337;28;20070;-78
2021/09/04 14:59:42;;;;;;;6.30;5.70;;;29.30;68.30;;;;;;6194497;28;20360;-78
2021/09/04 15:02:42;;;;;;;11.70;6.63;;;29.30;65.20;;;;;;6194823;28;20026;-78
2021/09/04 15:05:43;;;;;;;9.63;6.30;;;29.10;70.20;;;;;;6176764;28;20038;-78
2021/09/04 15:08:43;;;;;;;8.47;6.40;;;27.50;91.10;;;;;;6194366;28;20030;-78
2021/09/04 15:11:45;;;;;;;7.43;6.40;;;27.30;76.50;;;;;;6194754;28;20045;-78
2021/09/04 15:14:45;;;;;;;9.10;6.30;;;27.00;79.00;;;;;;6194224;28;20113;-78
2021/09/04 15:17:46;;;;;;;5.70;5.10;;;;;;;;;;6177056;28;20085;-78
2021/09/04 15:20:47;;;;;;;14.77;5.43;;;26.10;78.10;;;;;;6194442;28;20037;-78
2021/09/04 15:23:47;;;;;;;8.47;6.27;;;26.60;81.00;;;;;;6194383;28;20320;-78
2021/09/04 15:26:48;;;;;;;5.97;5.37;;;25.20;91.30;;;;;;6176557;28;20531;-77
2021/09/04 15:29:49;;;;;;;6.43;5.83;;;25.20;81.10;;;;;;6176818;28;20436;-78
2021/09/04 15:32:49;;;;;;;8.50;7.10;;;25.10;81.50;;;;;;6160883;28;20030;-77
2021/09/04 15:35:50;;;;;;;6.83;6.13;;;25.10;81.40;;;;;;6176483;28;20030;-78
2021/09/04 15:38:50;;;;;;;9.63;6.67;;;25.20;81.30;;;;;;6194136;28;20069;-77
2021/09/04 15:41:51;;;;;;;8.80;6.60;;;25.30;79.80;;;;;;6160706;28;20050;-78
2021/09/04 15:44:52;;;;;;;6.33;5.47;;;25.50;80.00;;;;;;6194096;28;20157;-78
2021/09/04 15:47:52;;;;;;;7.20;5.67;;;25.60;79.40;;;;;;6176570;28;20112;-77
2021/09/04 15:50:53;;;;;;;7.00;5.67;;;25.70;79.60;;;;;;6160109;28;20460;-77